createdAt,value
2018-12-04T00:01:08.369Z,1.60
2018-12-04T00:03:35.924Z,2.27
2018-12-04T00:06:03.439Z,2.00
2018-12-04T00:08:30.984Z,2.27
2018-12-04T00:10:58.514Z,2.30
2018-12-04T00:13:26.052Z,2.07
2018-12-04T00:15:53.652Z,2.37
2018-12-04T00:18:21.207Z,2.50
2018-12-04T00:20:48.727Z,2.20
2018-12-04T00:23:16.276Z,1.90
2018-12-04T00:25:43.791Z,2.37
2018-12-04T00:28:11.340Z,2.33
2018-12-04T00:30:38.866Z,2.30
2018-12-04T00:33:06.407Z,2.20
2018-12-04T00:35:33.924Z,1.87
2018-12-04T00:38:01.467Z,2.23
2018-12-04T00:40:28.992Z,2.30
2018-12-04T00:42:56.659Z,1.63
2018-12-04T00:45:24.181Z,2.00
2018-12-04T00:47:51.728Z,1.67
2018-12-04T00:50:19.246Z,1.77
2018-12-04T00:52:46.796Z,1.90
2018-12-04T00:55:14.319Z,2.47
2018-12-04T00:57:41.869Z,2.20
2018-12-04T01:00:09.464Z,1.60
2018-12-04T01:02:37.003Z,2.10
2018-12-04T01:05:04.680Z,1.90
2018-12-04T01:07:32.223Z,1.97
2018-12-04T01:09:59.741Z,2.03
2018-12-04T01:12:27.292Z,1.63
2018-12-04T01:14:54.859Z,1.50
2018-12-04T01:17:22.376Z,1.63
2018-12-04T01:19:49.920Z,1.90
2018-12-04T01:22:17.516Z,1.83
2018-12-04T01:24:45.066Z,1.63
2018-12-04T01:27:12.587Z,1.90
2018-12-04T01:29:40.133Z,1.50
2018-12-04T01:32:07.663Z,2.10
2018-12-04T01:34:35.211Z,1.50
2018-12-04T01:37:02.732Z,2.00
2018-12-04T01:39:30.272Z,1.50
2018-12-04T01:41:57.790Z,1.30
2018-12-04T01:44:25.336Z,1.10
2018-12-04T01:46:52.855Z,1.30
2018-12-04T01:49:20.476Z,1.37
2018-12-04T01:51:48.003Z,1.70
2018-12-04T01:54:15.547Z,1.60
2018-12-04T01:56:43.064Z,1.40
2018-12-04T01:59:10.613Z,1.60
2018-12-04T02:01:38.133Z,1.57
2018-12-04T02:04:05.679Z,1.43
2018-12-04T02:06:33.269Z,1.83
2018-12-04T02:09:00.792Z,1.70
2018-12-04T02:11:28.340Z,1.70
2018-12-04T02:13:55.856Z,1.70
2018-12-04T02:16:23.395Z,1.60
2018-12-04T02:18:50.912Z,2.00
2018-12-04T02:21:18.466Z,2.23
2018-12-04T02:23:45.988Z,1.70
2018-12-04T02:26:13.550Z,1.50
2018-12-04T02:28:41.447Z,1.70
2018-12-04T02:31:09.077Z,2.00
2018-12-04T02:33:36.624Z,2.10
2018-12-04T02:36:04.264Z,1.90
2018-12-04T02:38:31.798Z,2.47
2018-12-04T02:40:59.349Z,2.53
2018-12-04T02:43:26.872Z,2.40
2018-12-04T02:45:54.429Z,2.30
2018-12-04T02:48:21.950Z,1.70
2018-12-04T02:50:49.494Z,1.87
2018-12-04T02:53:17.017Z,1.67
2018-12-04T02:55:44.561Z,1.47
2018-12-04T02:58:12.085Z,1.87
2018-12-04T03:00:39.636Z,1.40
2018-12-04T03:03:07.155Z,1.70
2018-12-04T03:05:34.700Z,1.60
2018-12-04T03:08:02.229Z,1.83
2018-12-04T03:10:29.787Z,1.53
2018-12-04T03:12:57.382Z,1.43
2018-12-04T03:15:24.907Z,1.50
2018-12-04T03:17:52.452Z,1.40
2018-12-04T03:20:19.965Z,1.20
2018-12-04T03:22:47.528Z,1.50
2018-12-04T03:25:15.048Z,1.30
2018-12-04T03:27:42.591Z,0.97
2018-12-04T03:30:10.192Z,1.50
2018-12-04T03:32:37.751Z,1.03
2018-12-04T03:35:05.464Z,1.20
2018-12-04T03:37:33.004Z,1.30
2018-12-04T03:40:00.532Z,1.20
2018-12-04T03:42:28.084Z,1.67
2018-12-04T03:44:55.716Z,1.70
2018-12-04T03:47:23.259Z,1.23
2018-12-04T03:49:50.775Z,1.27
2018-12-04T03:52:18.321Z,1.40
2018-12-04T03:54:45.835Z,1.40
2018-12-04T03:57:13.376Z,1.20
2018-12-04T03:59:40.903Z,1.13
2018-12-04T04:02:08.443Z,1.30
2018-12-04T04:04:35.960Z,1.90
2018-12-04T04:07:03.590Z,1.90
2018-12-04T04:09:31.108Z,1.10
2018-12-04T04:11:58.656Z,0.90
2018-12-04T04:14:26.176Z,1.27
2018-12-04T04:16:53.710Z,1.50
2018-12-04T04:19:21.238Z,1.30
2018-12-04T04:21:48.793Z,1.77
2018-12-04T04:24:16.321Z,1.77
2018-12-04T04:26:43.873Z,1.70
2018-12-04T04:29:11.392Z,1.07
2018-12-04T04:31:38.900Z,1.13
2018-12-04T04:34:06.446Z,1.30
2018-12-04T04:36:33.959Z,0.90
2018-12-04T04:39:01.983Z,1.20
2018-12-04T04:41:29.641Z,1.47
2018-12-04T04:43:57.178Z,1.33
2018-12-04T04:46:24.696Z,1.00
2018-12-04T04:48:52.241Z,1.10
2018-12-04T04:51:19.763Z,1.40
2018-12-04T04:53:47.317Z,1.30
2018-12-04T04:56:14.832Z,1.37
2018-12-04T04:58:42.375Z,1.23
2018-12-04T05:01:09.887Z,1.60
2018-12-04T05:03:37.435Z,1.10
2018-12-04T05:06:04.961Z,1.10
2018-12-04T05:08:32.507Z,1.20
2018-12-04T05:11:00.024Z,1.50
2018-12-04T05:13:27.560Z,1.00
2018-12-04T05:15:55.078Z,1.50
2018-12-04T05:18:22.625Z,1.87
2018-12-04T05:20:50.152Z,1.33
2018-12-04T05:23:17.689Z,1.03
2018-12-04T05:25:45.203Z,1.23
2018-12-04T05:28:12.744Z,1.40
2018-12-04T05:30:40.287Z,1.20
2018-12-04T05:33:07.809Z,1.50
2018-12-04T05:35:35.355Z,1.27
2018-12-04T05:38:02.875Z,1.70
2018-12-04T05:40:30.419Z,1.40
2018-12-04T05:42:57.927Z,1.50
2018-12-04T05:45:25.476Z,1.80
2018-12-04T05:47:52.986Z,1.83
2018-12-04T05:50:20.524Z,1.73
2018-12-04T05:52:52.002Z,1.57
2018-12-04T05:55:19.540Z,1.80
2018-12-04T05:57:47.052Z,2.00
2018-12-04T06:00:14.595Z,1.90
2018-12-04T06:02:42.119Z,1.80
2018-12-04T06:05:09.659Z,2.07
2018-12-04T06:07:37.172Z,2.27
2018-12-04T06:10:05.704Z,2.23
2018-12-04T06:12:33.220Z,2.03
2018-12-04T06:15:00.759Z,2.67
2018-12-04T06:17:28.271Z,2.53
2018-12-04T06:19:55.815Z,2.50
2018-12-04T06:22:23.326Z,2.60
2018-12-04T06:24:50.868Z,2.57
2018-12-04T06:27:18.379Z,2.47
2018-12-04T06:29:45.924Z,2.70
2018-12-04T06:32:13.450Z,2.17
2018-12-04T06:34:41.068Z,2.90
2018-12-04T06:37:08.587Z,4.78
2018-12-04T06:39:36.148Z,5.33
2018-12-04T06:42:03.744Z,5.60
2018-12-04T06:44:31.288Z,3.73
2018-12-04T06:46:58.808Z,4.10
2018-12-04T06:49:27.961Z,3.67
2018-12-04T06:51:55.601Z,3.43
2018-12-04T06:54:23.155Z,3.30
2018-12-04T06:56:50.671Z,2.80
2018-12-04T06:59:18.219Z,3.20
2018-12-04T07:01:45.736Z,3.23
2018-12-04T07:04:13.256Z,3.03
2018-12-04T07:06:40.801Z,3.13
2018-12-04T07:09:08.391Z,2.77
2018-12-04T07:11:35.933Z,2.60
2018-12-04T07:14:03.720Z,2.73
2018-12-04T07:16:31.260Z,3.50
2018-12-04T07:18:58.782Z,3.40
2018-12-04T07:21:26.333Z,3.00
2018-12-04T07:23:53.864Z,2.97
2018-12-04T07:26:21.776Z,2.70
2018-12-04T07:28:49.302Z,2.53
2018-12-04T07:31:16.844Z,2.97
2018-12-04T07:33:46.049Z,3.30
2018-12-04T07:36:13.636Z,2.90
2018-12-04T07:38:41.708Z,3.07
2018-12-04T07:41:09.379Z,2.90
2018-12-04T07:43:36.893Z,2.60
2018-12-04T07:46:04.456Z,2.63
2018-12-04T07:48:31.976Z,3.00
2018-12-04T07:50:59.524Z,3.67
2018-12-04T07:53:27.049Z,2.60
2018-12-04T07:55:54.618Z,3.00
2018-12-04T07:58:22.135Z,2.50
2018-12-04T08:00:49.683Z,2.93
2018-12-04T08:03:17.204Z,2.83
2018-12-04T08:05:44.779Z,2.50
2018-12-04T08:08:12.294Z,2.73
2018-12-04T08:10:39.830Z,3.00
2018-12-04T08:13:07.351Z,3.30
2018-12-04T08:15:34.932Z,4.07
2018-12-04T08:18:02.545Z,3.30
2018-12-04T08:20:33.236Z,3.27
2018-12-04T08:23:00.847Z,2.80
2018-12-04T08:25:28.384Z,3.27
2018-12-04T08:27:55.896Z,3.10
2018-12-04T08:30:23.444Z,3.20
2018-12-04T08:32:51.084Z,3.53
2018-12-04T08:35:18.624Z,3.30
2018-12-04T08:37:46.147Z,3.30
2018-12-04T08:40:13.757Z,2.67
2018-12-04T08:42:41.275Z,2.83
2018-12-04T08:45:08.890Z,2.77
2018-12-04T08:47:36.460Z,3.00
2018-12-04T08:50:05.302Z,2.97
2018-12-04T08:52:32.850Z,2.90
2018-12-04T08:55:00.378Z,2.63
2018-12-04T08:57:27.917Z,2.90
2018-12-04T08:59:55.434Z,3.47
2018-12-04T09:02:22.982Z,3.20
2018-12-04T09:04:50.600Z,3.03
2018-12-04T09:07:18.140Z,3.20
2018-12-04T09:09:45.658Z,3.57
2018-12-04T09:12:13.211Z,2.90
2018-12-04T09:14:40.763Z,2.47
2018-12-04T09:17:08.306Z,2.80
2018-12-04T09:19:35.844Z,2.53
2018-12-04T09:22:03.593Z,2.80
2018-12-04T09:24:31.340Z,2.10
2018-12-04T09:27:05.089Z,3.07
2018-12-04T09:29:28.557Z,2.60
2018-12-04T09:31:56.267Z,1.87
2018-12-04T09:34:29.704Z,1.90
2018-12-04T09:36:53.355Z,2.30
2018-12-04T09:39:20.873Z,2.10
2018-12-04T09:41:48.420Z,2.00
2018-12-04T09:44:15.943Z,1.70
2018-12-04T09:46:43.510Z,2.00
2018-12-04T09:49:11.030Z,2.40
2018-12-04T09:51:38.572Z,2.07
2018-12-04T09:54:06.663Z,2.10
2018-12-04T09:56:34.255Z,2.27
2018-12-04T09:59:01.776Z,2.57
2018-12-04T10:01:29.331Z,2.00
2018-12-04T10:03:56.862Z,2.33
2018-12-04T10:06:24.492Z,1.70
2018-12-04T10:08:52.007Z,2.20
2018-12-04T10:11:19.570Z,1.80
2018-12-04T10:13:47.093Z,2.03
2018-12-04T10:16:14.636Z,1.67
2018-12-04T10:18:47.465Z,1.70
2018-12-04T10:21:11.836Z,1.77
2018-12-04T10:23:39.358Z,1.60
2018-12-04T10:26:06.914Z,1.60
2018-12-04T10:28:34.432Z,1.40
2018-12-04T10:31:07.775Z,1.60
2018-12-04T10:33:35.306Z,1.60
2018-12-04T10:36:02.847Z,1.63
2018-12-04T10:38:30.388Z,1.47
2018-12-04T10:40:57.907Z,1.30
2018-12-04T10:43:25.464Z,1.50
2018-12-04T10:45:52.985Z,1.47
2018-12-04T10:48:20.540Z,1.43
2018-12-04T10:50:48.064Z,1.60
2018-12-04T10:53:15.629Z,1.10
2018-12-04T10:55:43.151Z,1.57
2018-12-04T10:58:10.708Z,2.00
2018-12-04T11:00:40.216Z,2.00
2018-12-04T11:03:11.732Z,1.90
2018-12-04T11:05:40.154Z,1.63
2018-12-04T11:08:07.706Z,1.63
2018-12-04T11:10:35.223Z,1.67
2018-12-04T11:13:02.781Z,1.80
2018-12-04T11:15:30.304Z,1.50
2018-12-04T11:17:57.915Z,1.60
2018-12-04T11:20:25.444Z,1.40
2018-12-04T11:22:54.695Z,1.53
2018-12-04T11:25:22.291Z,1.50
2018-12-04T11:27:49.925Z,1.33
2018-12-04T11:30:17.481Z,1.40
2018-12-04T11:32:45.059Z,1.20
2018-12-04T11:35:12.581Z,1.20
2018-12-04T11:37:40.120Z,1.10
2018-12-04T11:40:07.728Z,1.00
2018-12-04T11:42:35.303Z,1.00
2018-12-04T11:45:02.841Z,1.63
2018-12-04T11:47:30.393Z,1.70
2018-12-04T11:49:58.408Z,1.17
2018-12-04T11:52:26.132Z,1.20
2018-12-04T11:54:53.777Z,1.40
2018-12-04T11:57:21.401Z,1.90
2018-12-04T11:59:50.845Z,2.10
2018-12-04T12:02:18.911Z,1.53
2018-12-04T12:04:46.433Z,2.30
2018-12-04T12:07:14.097Z,2.20
2018-12-04T12:09:41.620Z,1.67
2018-12-04T12:12:09.170Z,1.30
2018-12-04T12:14:39.425Z,1.97
2018-12-04T12:17:07.183Z,1.60
2018-12-04T12:19:34.709Z,1.07
2018-12-04T12:22:02.230Z,1.57
2018-12-04T12:24:29.801Z,1.00
2018-12-04T12:26:57.312Z,1.40
2018-12-04T12:29:24.848Z,1.80
2018-12-04T12:31:52.363Z,1.63
2018-12-04T12:34:23.506Z,1.70
2018-12-04T12:36:49.600Z,1.50
2018-12-04T12:39:17.280Z,1.97
2018-12-04T12:41:44.807Z,1.90
2018-12-04T12:44:12.378Z,1.93
2018-12-04T12:46:39.900Z,2.20
2018-12-04T12:49:07.583Z,2.17
2018-12-04T12:51:35.100Z,2.07
2018-12-04T12:54:02.659Z,2.80
2018-12-04T12:56:30.488Z,2.07
2018-12-04T12:58:58.074Z,2.73
2018-12-04T13:01:25.899Z,3.50
2018-12-04T13:03:53.469Z,3.30
2018-12-04T13:06:21.124Z,2.70
2018-12-04T13:08:48.844Z,2.83
2018-12-04T13:11:16.368Z,3.07
2018-12-04T13:13:44.128Z,2.33
2018-12-04T13:16:11.776Z,2.90
2018-12-04T13:18:39.362Z,2.90
2018-12-04T13:21:07.004Z,3.47
2018-12-04T13:23:37.129Z,2.90
2018-12-04T13:26:04.687Z,2.63
2018-12-04T13:28:32.285Z,1.80
2018-12-04T13:30:59.832Z,2.10
2018-12-04T13:33:27.376Z,2.03
2018-12-04T13:35:54.961Z,2.10
2018-12-04T13:38:22.515Z,1.77
2018-12-04T13:40:50.031Z,2.40
2018-12-04T13:43:17.648Z,2.67
2018-12-04T13:45:45.248Z,2.40
2018-12-04T13:48:13.028Z,2.70
2018-12-04T13:50:40.571Z,3.00
2018-12-04T13:53:08.121Z,2.53
2018-12-04T13:55:35.843Z,2.80
2018-12-04T13:58:03.578Z,3.20
2018-12-04T14:00:31.322Z,2.10
2018-12-04T14:02:58.881Z,1.30
2018-12-04T14:05:27.040Z,1.53
2018-12-04T14:07:54.964Z,1.23
2018-12-04T14:10:22.568Z,1.30
2018-12-04T14:12:50.117Z,1.40
2018-12-04T14:15:17.709Z,1.40
2018-12-04T14:17:45.382Z,1.97
2018-12-04T14:20:13.012Z,2.57
2018-12-04T14:22:40.542Z,2.30
2018-12-04T14:25:08.464Z,1.90
2018-12-04T14:27:36.269Z,1.40
2018-12-04T14:30:06.718Z,2.00
2018-12-04T14:32:34.365Z,1.70
2018-12-04T14:35:02.007Z,1.70
2018-12-04T14:37:29.579Z,1.77
2018-12-04T14:39:57.239Z,2.27
2018-12-04T14:42:24.949Z,2.40
2018-12-04T14:44:52.638Z,2.20
2018-12-04T14:47:20.251Z,1.70
2018-12-04T14:49:47.914Z,1.60
2018-12-04T14:52:15.520Z,2.60
2018-12-04T14:54:43.103Z,3.00
2018-12-04T14:57:10.749Z,5.07
2018-12-04T14:59:38.300Z,4.03
2018-12-04T15:02:05.854Z,3.40
2018-12-04T15:04:33.516Z,2.70
2018-12-04T15:07:01.160Z,2.50
2018-12-04T15:09:28.706Z,2.27
2018-12-04T15:11:56.244Z,2.17
2018-12-04T15:14:23.999Z,2.30
2018-12-04T15:16:54.995Z,2.80
2018-12-04T15:19:21.077Z,2.87
2018-12-04T15:21:48.637Z,3.10
2018-12-04T15:24:16.217Z,3.53
2018-12-04T15:26:44.032Z,5.50
2018-12-04T15:29:11.553Z,2.43
2018-12-04T15:31:39.268Z,2.47
2018-12-04T15:34:06.978Z,2.03
2018-12-04T15:36:34.572Z,2.73
2018-12-04T15:39:02.451Z,2.80
2018-12-04T15:41:30.045Z,2.73
2018-12-04T15:43:57.693Z,3.00
2018-12-04T15:46:25.364Z,3.10
2018-12-04T15:48:52.972Z,2.97
2018-12-04T15:51:20.525Z,3.53
2018-12-04T15:53:48.072Z,3.67
2018-12-04T15:56:15.737Z,3.67
2018-12-04T15:58:43.259Z,3.17
2018-12-04T16:01:10.884Z,3.57
2018-12-04T16:03:38.404Z,2.97
2018-12-04T16:06:05.953Z,3.17
2018-12-04T16:08:33.475Z,3.50
2018-12-04T16:11:01.032Z,3.63
2018-12-04T16:13:28.552Z,3.27
2018-12-04T16:15:56.109Z,5.30
2018-12-04T16:18:23.640Z,3.80
2018-12-04T16:20:51.192Z,3.40
2018-12-04T16:23:18.715Z,3.20
2018-12-04T16:25:46.264Z,3.50
2018-12-04T16:28:13.784Z,5.23
2018-12-04T16:30:41.412Z,8.10
2018-12-04T16:33:08.932Z,6.23
2018-12-04T16:35:36.484Z,4.77
2018-12-04T16:38:04.011Z,4.30
2018-12-04T16:40:31.564Z,4.33
2018-12-04T16:42:59.079Z,4.07
2018-12-04T16:45:26.628Z,3.87
2018-12-04T16:47:54.151Z,3.47
2018-12-04T16:50:21.692Z,3.77
2018-12-04T16:52:49.217Z,6.67
2018-12-04T16:55:16.751Z,5.87
2018-12-04T16:57:44.308Z,4.63
2018-12-04T17:00:12.309Z,4.17
2018-12-04T17:02:39.852Z,4.10
2018-12-04T17:05:07.469Z,3.80
2018-12-04T17:07:35.012Z,3.40
2018-12-04T17:10:02.612Z,3.37
2018-12-04T17:12:30.166Z,3.97
2018-12-04T17:14:57.688Z,3.97
2018-12-04T17:17:25.421Z,8.97
2018-12-04T17:19:52.942Z,6.40
2018-12-04T17:22:20.489Z,4.93
2018-12-04T17:24:48.008Z,3.97
2018-12-04T17:27:15.565Z,5.73
2018-12-04T17:29:43.079Z,4.20
2018-12-04T17:32:10.622Z,3.57
2018-12-04T17:34:38.143Z,3.70
2018-12-04T17:37:05.778Z,3.07
2018-12-04T17:39:33.295Z,3.80
2018-12-04T17:42:01.029Z,3.13
2018-12-04T17:44:28.551Z,3.50
2018-12-04T17:46:56.101Z,3.53
2018-12-04T17:49:23.621Z,3.67
2018-12-04T17:51:51.248Z,4.13
2018-12-04T17:54:18.895Z,3.77
2018-12-04T17:56:46.442Z,3.90
2018-12-04T17:59:13.972Z,4.13
2018-12-04T18:01:41.521Z,4.30
2018-12-04T18:04:09.043Z,3.87
2018-12-04T18:06:36.596Z,4.47
2018-12-04T18:09:06.176Z,4.40
2018-12-04T18:11:33.802Z,4.00
2018-12-04T18:14:01.324Z,3.83
2018-12-04T18:16:28.884Z,4.17
2018-12-04T18:18:56.406Z,3.97
2018-12-04T18:21:24.947Z,4.07
2018-12-04T18:23:52.468Z,3.50
2018-12-04T18:26:20.048Z,4.40
2018-12-04T18:28:47.570Z,4.93
2018-12-04T18:31:15.187Z,6.97
2018-12-04T18:33:42.714Z,6.40
2018-12-04T18:36:10.235Z,6.33
2018-12-04T18:38:38.247Z,4.63
2018-12-04T18:41:05.797Z,5.00
2018-12-04T18:43:33.348Z,4.50
2018-12-04T18:46:00.867Z,4.93
2018-12-04T18:48:28.424Z,5.33
2018-12-04T18:50:55.969Z,4.10
2018-12-04T18:53:23.522Z,4.37
2018-12-04T18:55:51.123Z,4.53
2018-12-04T18:58:18.707Z,5.87
2018-12-04T19:00:46.235Z,10.70
2018-12-04T19:03:13.878Z,11.00
2018-12-04T19:05:41.411Z,4.47
2018-12-04T19:08:08.965Z,6.10
2018-12-04T19:10:36.502Z,23.10
2018-12-04T19:13:04.052Z,9.47
2018-12-04T19:15:31.660Z,7.53
2018-12-04T19:17:59.229Z,5.13
2018-12-04T19:20:26.743Z,5.27
2018-12-04T19:22:54.287Z,4.87
2018-12-04T19:25:21.825Z,5.77
2018-12-04T19:27:49.376Z,5.40
2018-12-04T19:30:17.080Z,5.40
2018-12-04T19:32:44.634Z,5.73
2018-12-04T19:35:12.264Z,4.97
2018-12-04T19:37:39.896Z,5.17
2018-12-04T19:40:08.592Z,6.00
2018-12-04T19:42:36.237Z,4.20
2018-12-04T19:45:04.636Z,4.30
2018-12-04T19:47:32.223Z,4.13
2018-12-04T19:49:59.756Z,7.37
2018-12-04T19:52:27.309Z,6.47
2018-12-04T19:54:54.827Z,4.73
2018-12-04T19:57:22.397Z,3.70
2018-12-04T19:59:50.871Z,4.53
2018-12-04T20:02:18.441Z,4.40
2018-12-04T20:04:45.974Z,4.20
2018-12-04T20:07:13.536Z,14.53
2018-12-04T20:09:41.084Z,4.47
2018-12-04T20:12:08.660Z,3.20
2018-12-04T20:14:36.194Z,4.03
2018-12-04T20:17:03.825Z,3.90
2018-12-04T20:19:31.381Z,3.97
2018-12-04T20:21:58.908Z,3.62
2018-12-04T20:24:26.461Z,4.27
2018-12-04T20:26:53.992Z,5.40
2018-12-04T20:29:21.539Z,5.10
2018-12-04T20:31:49.055Z,3.90
2018-12-04T20:34:16.603Z,4.00
2018-12-04T20:36:44.132Z,4.00
2018-12-04T20:39:11.676Z,4.30
2018-12-04T20:41:39.211Z,4.00
2018-12-04T20:44:06.757Z,6.17
2018-12-04T20:46:34.377Z,5.97
2018-12-04T20:49:01.940Z,5.37
2018-12-04T20:51:30.452Z,3.47
2018-12-04T20:53:58.012Z,4.03
2018-12-04T20:56:25.545Z,4.42
2018-12-04T20:58:53.183Z,5.40
2018-12-04T21:01:20.700Z,5.17
2018-12-04T21:03:48.244Z,5.13
2018-12-04T21:06:15.763Z,5.23
2018-12-04T21:08:43.304Z,4.53
2018-12-04T21:11:10.825Z,5.13
2018-12-04T21:13:38.380Z,6.67
2018-12-04T21:16:05.906Z,5.23
2018-12-04T21:18:33.452Z,4.63
2018-12-04T21:21:00.985Z,5.65
2018-12-04T21:23:28.516Z,5.63
2018-12-04T21:25:56.077Z,5.33
2018-12-04T21:28:23.602Z,5.50
2018-12-04T21:34:01.141Z,5.63
2018-12-04T21:36:34.266Z,7.17
2018-12-04T21:39:16.558Z,5.27
2018-12-04T21:41:49.672Z,5.80
2018-12-04T21:44:22.939Z,5.42
2018-12-04T21:46:56.099Z,5.03
2018-12-04T21:49:24.612Z,4.55
2018-12-04T21:51:52.144Z,4.72
2018-12-04T21:54:19.780Z,3.57
2018-12-04T21:56:47.299Z,3.97
2018-12-04T21:59:14.813Z,4.17
2018-12-04T22:01:43.015Z,5.33
2018-12-04T22:04:10.544Z,5.05
2018-12-04T22:06:38.100Z,5.20
2018-12-04T22:09:06.787Z,5.53
2018-12-04T22:11:34.828Z,7.77
2018-12-04T22:14:02.436Z,8.20
2018-12-04T22:16:29.986Z,8.07
2018-12-04T22:18:57.505Z,9.73
2018-12-04T22:21:25.051Z,8.00
2018-12-04T22:23:52.587Z,9.77
2018-12-04T22:26:20.133Z,9.20
2018-12-04T22:28:47.652Z,7.57
2018-12-04T22:31:15.203Z,6.23
2018-12-04T22:33:42.720Z,5.77
2018-12-04T22:36:10.259Z,5.90
2018-12-04T22:38:37.784Z,8.23
2018-12-04T22:41:05.338Z,8.87
2018-12-04T22:43:32.858Z,9.00
2018-12-04T22:46:00.417Z,8.53
2018-12-04T22:48:27.938Z,8.60
2018-12-04T22:50:55.564Z,6.03
2018-12-04T22:53:23.083Z,5.13
2018-12-04T22:55:50.623Z,4.60
2018-12-04T22:58:18.145Z,6.47
2018-12-04T23:00:46.060Z,7.33
2018-12-04T23:03:13.580Z,7.87
2018-12-04T23:05:41.127Z,7.50
2018-12-04T23:08:08.647Z,7.73
2018-12-04T23:10:36.198Z,7.83
2018-12-04T23:13:03.803Z,6.90
2018-12-04T23:15:31.344Z,7.43
2018-12-04T23:17:58.892Z,6.67
2018-12-04T23:20:26.404Z,5.50
2018-12-04T23:22:53.957Z,5.03
2018-12-04T23:25:21.479Z,5.50
2018-12-04T23:27:49.027Z,5.33
2018-12-04T23:30:16.541Z,5.17
2018-12-04T23:32:44.083Z,5.60
2018-12-04T23:35:11.680Z,7.33
2018-12-04T23:37:39.223Z,7.20
2018-12-04T23:40:06.908Z,6.47
2018-12-04T23:42:34.447Z,5.93
2018-12-04T23:45:01.969Z,5.10
2018-12-04T23:47:29.608Z,4.63
2018-12-04T23:49:57.125Z,6.30
2018-12-04T23:52:24.674Z,4.90
2018-12-04T23:54:52.194Z,4.77
2018-12-04T23:57:19.740Z,4.80
2018-12-04T23:59:47.254Z,5.50
